Time;durP1;ratioP1;P1;durP2;ratioP2;P2;SDS_P1;SDS_P2;PMS_P1;PMS_P2;Temp;Humidity;BMP_temperature;BMP_pressure;BME280_temperature;BME280_humidity;BME280_pressure;Samples;Min_cycle;Max_cycle;Signal;HPM_P1;HPM_P2
2022/01/16 00:04:27;;;;;;;26.57;8.07;;;1.70;76.60;;;;;;4998213;28;20458;-55
2022/01/16 00:06:53;;;;;;;19.90;7.63;;;1.70;75.00;;;;;;5031815;28;20485;-55
2022/01/16 00:09:20;;;;;;;15.50;7.70;;;1.80;65.50;;;;;;5031529;28;20530;-55
2022/01/16 00:11:48;;;;;;;13.97;7.10;;;1.80;65.50;;;;;;5031365;28;20570;-55
2022/01/16 00:14:14;;;;;;;22.00;7.60;;;1.80;63.10;;;;;;5029972;28;20469;-56
2022/01/16 00:16:41;;;;;;;19.83;7.23;;;1.80;76.30;;;;;;5033478;28;20538;-55
2022/01/16 00:19:08;;;;;;;16.50;7.33;;;1.80;83.20;;;;;;5031438;28;20601;-55
2022/01/16 00:21:39;;;;;;;15.07;7.27;;;1.80;76.90;;;;;;5032209;28;20486;-54
2022/01/16 00:24:07;;;;;;;12.07;6.50;;;1.90;76.50;;;;;;5030643;28;20466;-55
2022/01/16 00:26:35;;;;;;;20.73;8.60;;;1.90;90.10;;;;;;5031133;28;20517;-59
2022/01/16 00:29:04;;;;;;;10.23;6.30;;;2.00;92.10;;;;;;5033988;28;20489;-56
2022/01/16 00:31:31;;;;;;;20.17;7.53;;;2.00;99.90;;;;;;5032695;28;20549;-56
2022/01/16 00:33:57;;;;;;;20.40;7.63;;;2.00;99.90;;;;;;5031593;28;20570;-55
2022/01/16 00:36:24;;;;;;;16.93;7.90;;;2.10;99.90;;;;;;5032916;28;20898;-54
2022/01/16 00:38:53;;;;;;;22.07;8.17;;;2.10;99.90;;;;;;5031072;28;20976;-55
2022/01/16 00:41:21;;;;;;;24.23;8.90;;;2.20;99.90;;;;;;5033079;28;20498;-54
2022/01/16 00:43:48;;;;;;;20.00;7.57;;;2.20;99.90;;;;;;5032557;28;21020;-54
2022/01/16 00:46:17;;;;;;;14.10;7.17;;;2.10;99.90;;;;;;5032404;28;20497;-55
2022/01/16 00:48:44;;;;;;;20.17;7.20;;;2.20;99.90;;;;;;5028027;28;20558;-54
2022/01/16 00:51:11;;;;;;;18.00;7.80;;;2.30;99.90;;;;;;5029899;28;21003;-55
2022/01/16 00:53:39;;;;;;;13.23;6.40;;;2.30;99.90;;;;;;5032318;28;20554;-55
2022/01/16 00:56:05;;;;;;;23.20;7.27;;;2.30;33.50;;;;;;5028972;28;20902;-55
2022/01/16 00:58:32;;;;;;;19.03;7.80;;;2.40;30.90;;;;;;5028501;28;20506;-55
2022/01/16 01:00:59;;;;;;;20.40;7.23;;;2.40;24.40;;;;;;5028542;28;20549;-55
2022/01/16 01:03:26;;;;;;;19.60;7.63;;;2.50;26.90;;;;;;5032677;28;20594;-55
2022/01/16 01:05:53;;;;;;;13.10;5.53;;;2.50;26.90;;;;;;5030112;28;20466;-54
2022/01/16 01:08:20;;;;;;;19.00;6.30;;;2.50;39.10;;;;;;5029261;28;20609;-54
2022/01/16 01:10:50;;;;;;;19.37;6.17;;;2.50;25.30;;;;;;5029231;28;20991;-55
2022/01/16 01:13:23;;;;;;;21.73;7.80;;;2.50;33.00;;;;;;5030717;28;20463;-55
2022/01/16 01:15:57;;;;;;;11.10;5.23;;;2.50;37.00;;;;;;5029150;28;20459;-55
2022/01/16 01:18:25;;;;;;;21.43;7.50;;;2.50;42.70;;;;;;5027757;28;20563;-55
2022/01/16 01:20:53;;;;;;;26.20;8.60;;;2.50;52.70;;;;;;5028614;28;20578;-55
2022/01/16 01:23:20;;;;;;;20.20;7.23;;;2.50;63.20;;;;;;5030895;28;20469;-54
2022/01/16 01:25:47;;;;;;;29.53;8.67;;;2.60;69.40;;;;;;5030599;28;20494;-55
2022/01/16 01:28:14;;;;;;;22.63;8.70;;;2.50;69.00;;;;;;5029820;28;20458;-55
2022/01/16 01:30:43;;;;;;;18.67;8.03;;;2.60;69.80;;;;;;5028435;28;20574;-55
2022/01/16 01:33:13;;;;;;;17.67;7.67;;;2.60;73.20;;;;;;5025579;28;20915;-56
2022/01/16 01:35:40;;;;;;;25.60;8.30;;;2.60;77.80;;;;;;5030554;28;20491;-55
2022/01/16 01:38:10;;;;;;;23.57;8.40;;;2.50;81.20;;;;;;5031478;28;20467;-55
2022/01/16 01:40:39;;;;;;;21.47;8.30;;;2.50;93.00;;;;;;5031577;28;20487;-55
2022/01/16 01:51:02;;;;;;;21.03;9.23;;;2.50;81.40;;;;;;5032721;28;20553;-55
2022/01/16 01:51:31;;;;;;;17.90;8.03;;;2.50;84.10;;;;;;5027772;28;20937;-56
2022/01/16 01:54:00;;;;;;;20.87;7.63;;;2.60;83.10;;;;;;5027117;28;20524;-55
2022/01/16 01:56:28;;;;;;;24.80;8.40;;;2.60;83.30;;;;;;5029535;28;20462;-56
2022/01/16 01:58:57;;;;;;;16.87;7.20;;;2.60;66.60;;;;;;5029180;28;20894;-54
2022/01/16 02:01:24;;;;;;;20.43;8.50;;;2.60;64.90;;;;;;5028465;28;20514;-56
2022/01/16 02:03:51;;;;;;;19.40;8.40;;;2.60;49.90;;;;;;5028030;28;20558;-54
2022/01/16 02:06:20;;;;;;;20.10;8.87;;;2.50;50.50;;;;;;5029739;28;20502;-56
2022/01/16 02:08:50;;;;;;;17.57;8.10;;;2.60;49.70;;;;;;5027812;28;20549;-55
2022/01/16 02:11:20;;;;;;;18.40;7.77;;;2.50;53.70;;;;;;5026843;28;20499;-55
2022/01/16 02:13:54;;;;;;;13.37;6.90;;;2.50;36.40;;;;;;5023805;28;20465;-55
2022/01/16 02:35:52;;;;;;;25.77;8.27;;;2.50;55.90;;;;;;5030952;28;20431;-55
2022/01/16 02:38:21;;;;;;;16.63;9.03;;;2.60;59.70;;;;;;5029572;28;20828;-55
2022/01/16 02:40:54;;;;;;;15.83;8.03;;;2.60;64.50;;;;;;5025354;28;20491;-55
2022/01/16 02:43:29;;;;;;;15.00;8.40;;;2.60;71.20;;;;;;5030738;28;20462;-55
2022/01/16 02:46:35;;;;;;;27.10;11.33;;;2.60;81.20;;;;;;5031670;28;20875;-55
2022/01/16 02:48:44;;;;;;;21.47;8.40;;;2.60;86.90;;;;;;5029253;28;20450;-55
2022/01/16 02:51:10;;;;;;;15.67;8.00;;;2.60;85.10;;;;;;5026452;28;20490;-55
2022/01/16 02:53:39;;;;;;;20.17;7.87;;;2.60;85.30;;;;;;5026255;28;20558;-55
2022/01/16 02:56:06;;;;;;;28.83;9.53;;;2.60;79.90;;;;;;5030255;28;20458;-54
2022/01/16 02:58:33;;;;;;;23.00;10.13;;;2.50;87.70;;;;;;5027058;28;20627;-55
2022/01/16 03:00:59;;;;;;;18.90;8.33;;;2.50;82.50;;;;;;5027871;28;20972;-55
2022/01/16 03:03:26;;;;;;;16.70;8.20;;;2.50;85.40;;;;;;5028424;28;21023;-55
2022/01/16 03:05:53;;;;;;;25.67;8.13;;;2.50;80.60;;;;;;5028131;28;20964;-54
2022/01/16 03:08:19;;;;;;;16.70;7.30;;;2.50;86.50;;;;;;5026393;28;20554;-55
2022/01/16 03:11:08;;;;;;;13.53;7.00;;;2.50;90.30;;;;;;5022493;28;20566;-56
2022/01/16 03:13:34;;;;;;;16.00;7.37;;;2.50;93.90;;;;;;5027531;28;20544;-56
2022/01/16 03:16:01;;;;;;;18.50;6.43;;;2.50;95.50;;;;;;5027241;28;20491;-55
2022/01/16 03:23:56;;;;;;;23.83;7.23;;;2.40;89.90;;;;;;5041260;28;20541;-55
2022/01/16 03:26:24;;;;;;;23.80;7.80;;;2.30;89.80;;;;;;5030947;28;20545;-56
2022/01/16 03:28:50;;;;;;;21.13;7.90;;;2.30;86.90;;;;;;5027902;28;20550;-55
2022/01/16 03:31:17;;;;;;;17.63;6.57;;;2.20;86.90;;;;;;5032216;28;20601;-55
2022/01/16 03:33:43;;;;;;;21.30;6.80;;;2.10;78.80;;;;;;5033118;28;20534;-55
2022/01/16 03:36:10;;;;;;;18.30;7.30;;;2.10;73.30;;;;;;5033851;28;20485;-54
2022/01/16 03:38:37;;;;;;;23.13;6.77;;;2.00;68.90;;;;;;5030013;28;21027;-55
2022/01/16 03:41:04;;;;;;;27.40;5.80;;;2.00;65.40;;;;;;5032722;28;20520;-55
2022/01/16 03:43:32;;;;;;;15.27;6.20;;;2.00;66.90;;;;;;5036779;28;20488;-55
2022/01/16 03:45:59;;;;;;;23.13;7.40;;;1.90;64.40;;;;;;5031408;28;20506;-55
2022/01/16 03:48:26;;;;;;;22.70;7.40;;;1.90;55.80;;;;;;5031711;28;20850;-55
2022/01/16 03:50:53;;;;;;;29.20;7.63;;;1.80;57.70;;;;;;4998877;28;976056;-55
2022/01/16 03:53:19;;;;;;;24.47;7.57;;;1.80;54.60;;;;;;5034255;28;20236;-55
2022/01/16 03:55:46;;;;;;;29.53;6.63;;;1.70;52.60;;;;;;5026187;28;20494;-55
2022/01/16 03:58:12;;;;;;;15.93;7.03;;;1.70;43.80;;;;;;5030369;28;20463;-54
2022/01/16 04:00:40;;;;;;;20.20;7.80;;;1.70;44.50;;;;;;5031027;28;20525;-54
2022/01/16 04:03:07;;;;;;;18.03;7.33;;;1.60;40.20;;;;;;5029341;28;20594;-55
2022/01/16 04:05:34;;;;;;;18.23;7.60;;;1.60;40.40;;;;;;5034106;28;20561;-56
2022/01/16 04:08:02;;;;;;;21.23;7.07;;;1.50;39.40;;;;;;5031176;28;20554;-55
2022/01/16 04:10:29;;;;;;;19.77;7.20;;;1.50;40.10;;;;;;5031229;28;20478;-56
2022/01/16 04:12:55;;;;;;;26.20;8.13;;;1.50;36.50;;;;;;5033982;28;20869;-55
2022/01/16 04:15:34;;;;;;;21.00;7.57;;;1.40;38.60;;;;;;5033308;28;20470;-56
2022/01/16 04:18:05;;;;;;;26.33;7.93;;;1.50;40.90;;;;;;5031797;28;20467;-56
2022/01/16 04:20:33;;;;;;;17.17;7.40;;;1.50;48.60;;;;;;5030079;28;20482;-54
2022/01/16 04:23:00;;;;;;;23.27;7.30;;;1.50;48.50;;;;;;5031472;28;20470;-55
2022/01/16 04:25:26;;;;;;;27.10;8.27;;;1.40;45.30;;;;;;5028119;28;20565;-55
2022/01/16 04:27:53;;;;;;;23.63;6.80;;;1.40;45.80;;;;;;5032478;28;20541;-55
2022/01/16 04:30:19;;;;;;;19.03;6.93;;;1.50;49.30;;;;;;5028551;28;20577;-56
2022/01/16 04:32:46;;;;;;;21.97;6.73;;;1.40;50.20;;;;;;5031051;28;20459;-55
2022/01/16 04:35:14;;;;;;;28.33;7.47;;;1.40;49.90;;;;;;5032179;28;20599;-55
2022/01/16 04:37:40;;;;;;;24.00;7.20;;;1.40;48.10;;;;;;5031337;28;20466;-55
2022/01/16 04:40:10;;;;;;;20.43;6.50;;;1.30;48.50;;;;;;5031813;28;20566;-55
2022/01/16 04:45:21;;;;;;;30.20;7.40;;;1.30;42.00;;;;;;5031437;28;20819;-55
2022/01/16 04:47:50;;;;;;;29.53;6.17;;;1.20;39.70;;;;;;5031607;28;20463;-54
2022/01/16 04:50:18;;;;;;;22.43;6.43;;;1.20;39.70;;;;;;5051048;22;20499;-52
2022/01/16 04:52:45;;;;;;;17.13;6.03;;;1.20;40.10;;;;;;5026188;28;20550;-52
2022/01/16 04:55:13;;;;;;;30.30;7.80;;;1.20;37.00;;;;;;5031838;28;20463;-53
2022/01/16 04:57:41;;;;;;;22.53;6.10;;;1.10;34.30;;;;;;5030995;28;20508;-54
2022/01/16 05:00:10;;;;;;;18.73;6.20;;;1.10;29.10;;;;;;5028440;28;20487;-52
2022/01/16 05:02:37;;;;;;;17.00;6.67;;;1.10;31.40;;;;;;5028301;28;20549;-52
2022/01/16 05:05:05;;;;;;;24.97;6.97;;;1.10;33.30;;;;;;5028986;28;20545;-52
2022/01/16 05:07:33;;;;;;;39.33;7.20;;;1.10;31.50;;;;;;5034335;28;20549;-52
2022/01/16 05:09:59;;;;;;;21.30;6.90;;;1.10;33.40;;;;;;5029593;28;20541;-52
2022/01/16 05:12:32;;;;;;;22.40;6.83;;;1.00;33.20;;;;;;5029243;28;20459;-54
2022/01/16 05:17:43;;;;;;;18.63;6.33;;;1.00;29.40;;;;;;5030932;28;20960;-53
2022/01/16 05:20:11;;;;;;;28.13;7.23;;;1.00;27.20;;;;;;5031714;28;20955;-53
2022/01/16 05:22:39;;;;;;;29.50;6.60;;;1.00;24.40;;;;;;5029825;28;20546;-52
2022/01/16 05:25:08;;;;;;;26.77;6.90;;;0.90;21.30;;;;;;5032449;28;20466;-53
2022/01/16 05:27:34;;;;;;;17.53;6.20;;;0.90;72.10;;;;;;5031725;28;20462;-52
2022/01/16 05:30:01;;;;;;;25.00;7.03;;;0.90;20.30;;;;;;5030338;28;20546;-52
2022/01/16 05:32:27;;;;;;;38.90;8.23;;;0.90;77.50;;;;;;5025545;28;20542;-52
2022/01/16 05:34:54;;;;;;;24.33;7.57;;;0.90;99.90;;;;;;5032672;28;20558;-53
2022/01/16 05:37:20;;;;;;;39.33;9.03;;;0.90;99.90;;;;;;5027877;28;20455;-53
2022/01/16 05:39:49;;;;;;;22.50;6.93;;;0.90;99.90;;;;;;5030236;28;20887;-52
2022/01/16 05:42:16;;;;;;;23.33;7.40;;;0.90;99.90;;;;;;5029739;28;20482;-52
2022/01/16 05:44:42;;;;;;;23.30;7.07;;;0.80;99.90;;;;;;5034989;28;20467;-53
2022/01/16 05:47:12;;;;;;;19.47;7.07;;;0.90;99.90;;;;;;5028823;28;20458;-53
2022/01/16 05:49:41;;;;;;;22.00;6.37;;;0.80;99.90;;;;;;5032703;28;20517;-53
2022/01/16 05:52:08;;;;;;;19.50;6.00;;;0.80;99.90;;;;;;5029818;28;20491;-52
2022/01/16 05:54:35;;;;;;;22.40;6.17;;;0.80;99.90;;;;;;5032143;28;20554;-52
2022/01/16 05:57:03;;;;;;;19.33;6.40;;;0.80;99.90;;;;;;5027762;28;21114;-52
2022/01/16 05:59:29;;;;;;;17.60;7.27;;;0.70;99.90;;;;;;5029727;28;20466;-52
2022/01/16 06:01:56;;;;;;;23.80;6.50;;;0.70;99.90;;;;;;5026730;28;20525;-52
2022/01/16 06:04:22;;;;;;;23.87;6.07;;;0.70;99.90;;;;;;5031434;28;20538;-53
2022/01/16 06:06:49;;;;;;;21.60;5.80;;;0.70;99.90;;;;;;5025695;28;21035;-53
2022/01/16 06:09:16;;;;;;;31.53;7.50;;;0.70;99.90;;;;;;5036857;28;20467;-53
2022/01/16 06:11:43;;;;;;;17.17;6.20;;;0.70;99.90;;;;;;5027674;28;20567;-52
2022/01/16 06:14:10;;;;;;;24.23;8.50;;;0.60;99.90;;;;;;5026160;28;21040;-53
2022/01/16 06:16:38;;;;;;;18.47;6.67;;;0.60;99.90;;;;;;5029967;28;20463;-53
2022/01/16 06:19:04;;;;;;;28.37;7.13;;;0.70;99.90;;;;;;5029949;28;20462;-52
2022/01/16 06:21:31;;;;;;;19.20;6.27;;;0.70;99.90;;;;;;5029160;28;20570;-52
2022/01/16 06:23:57;;;;;;;21.27;6.90;;;0.60;99.90;;;;;;5029509;28;21032;-52
2022/01/16 06:26:24;;;;;;;13.03;5.30;;;0.60;99.90;;;;;;5030926;28;20464;-53
2022/01/16 06:28:50;;;;;;;15.53;6.20;;;0.50;99.90;;;;;;5030279;28;20964;-52
2022/01/16 06:31:19;;;;;;;21.57;6.97;;;0.50;99.90;;;;;;5028077;28;20565;-52
2022/01/16 06:33:45;;;;;;;20.80;5.83;;;0.40;99.90;;;;;;5028306;28;20562;-52
2022/01/16 06:36:12;;;;;;;22.50;6.57;;;0.40;99.90;;;;;;5029379;28;20542;-52
2022/01/16 06:38:38;;;;;;;22.33;7.00;;;0.40;99.90;;;;;;5025949;28;20494;-52
2022/01/16 06:41:05;;;;;;;21.90;6.77;;;0.40;99.90;;;;;;5028957;28;20526;-53
2022/01/16 06:43:31;;;;;;;24.77;5.80;;;0.30;99.90;;;;;;5030159;28;20561;-54
2022/01/16 06:45:58;;;;;;;21.67;6.97;;;0.40;99.90;;;;;;5027316;28;20462;-53
2022/01/16 06:48:26;;;;;;;19.47;6.47;;;0.40;99.90;;;;;;5025399;28;20562;-52
2022/01/16 06:50:52;;;;;;;20.07;6.47;;;0.30;99.90;;;;;;5029963;28;20504;-52
2022/01/16 06:53:19;;;;;;;22.03;7.43;;;0.30;99.90;;;;;;5032842;28;21039;-53
2022/01/16 06:55:45;;;;;;;18.97;6.10;;;0.30;99.90;;;;;;5032696;28;20552;-53
2022/01/16 06:58:12;;;;;;;17.50;6.90;;;0.30;99.90;;;;;;5034273;28;20895;-53
2022/01/16 07:00:38;;;;;;;14.63;6.87;;;0.20;99.90;;;;;;5031695;28;21063;-53
2022/01/16 07:03:05;;;;;;;11.70;6.77;;;0.20;99.90;;;;;;5031291;28;20569;-53
2022/01/16 07:05:33;;;;;;;14.90;7.50;;;0.20;99.90;;;;;;5027536;28;20552;-53
2022/01/16 07:07:59;;;;;;;23.70;9.50;;;0.20;99.90;;;;;;5031922;28;20541;-53
2022/01/16 07:10:26;;;;;;;23.87;10.03;;;0.20;99.90;;;;;;5031752;28;20573;-53
2022/01/16 07:12:53;;;;;;;23.13;9.30;;;0.30;99.90;;;;;;5032789;28;20473;-53
2022/01/16 07:15:19;;;;;;;21.27;8.53;;;0.20;99.90;;;;;;5030912;28;20490;-52
2022/01/16 07:17:46;;;;;;;19.33;8.30;;;0.20;99.90;;;;;;5025637;28;20565;-52
2022/01/16 07:20:15;;;;;;;23.40;9.80;;;0.20;99.90;;;;;;5032890;28;20478;-51
2022/01/16 07:22:43;;;;;;;30.17;8.40;;;0.30;99.90;;;;;;5033021;28;21058;-53
2022/01/16 07:25:11;;;;;;;25.10;9.67;;;0.20;99.90;;;;;;5032800;28;21016;-53
2022/01/16 07:27:37;;;;;;;16.37;9.57;;;0.20;99.90;;;;;;5034091;28;20581;-52
2022/01/16 07:30:05;;;;;;;17.27;9.50;;;0.30;99.90;;;;;;5027286;28;20553;-52
2022/01/16 07:32:32;;;;;;;17.03;9.33;;;0.30;99.90;;;;;;5025137;28;20501;-53
2022/01/16 07:34:59;;;;;;;25.33;10.20;;;0.30;99.90;;;;;;5023132;28;20550;-52
2022/01/16 07:37:25;;;;;;;20.20;8.90;;;0.30;99.90;;;;;;5033975;28;20622;-52
2022/01/16 07:39:53;;;;;;;22.03;8.47;;;0.30;99.90;;;;;;5031627;28;20875;-53
2022/01/16 07:42:20;;;;;;;21.27;10.30;;;0.30;99.90;;;;;;5029721;28;21070;-52
2022/01/16 07:44:46;;;;;;;19.63;9.10;;;0.30;99.90;;;;;;5027618;28;20893;-53
2022/01/16 07:47:14;;;;;;;26.73;10.40;;;0.30;99.90;;;;;;5030051;28;21033;-53
2022/01/16 07:49:40;;;;;;;17.73;9.53;;;0.40;99.90;;;;;;5030557;28;20971;-53
2022/01/16 07:52:08;;;;;;;17.57;9.93;;;0.40;99.90;;;;;;5031137;28;21015;-53
2022/01/16 07:54:34;;;;;;;19.30;10.80;;;0.40;99.90;;;;;;5030021;28;20545;-53
2022/01/16 07:57:04;;;;;;;21.10;10.03;;;0.40;99.90;;;;;;5025491;28;20546;-52
2022/01/16 07:59:30;;;;;;;16.30;9.80;;;0.40;99.90;;;;;;5030369;28;20463;-52
2022/01/16 08:01:57;;;;;;;21.70;11.63;;;0.40;99.90;;;;;;5024057;28;20573;-52
2022/01/16 08:04:23;;;;;;;21.60;10.60;;;0.40;99.90;;;;;;5031576;28;20509;-52
2022/01/16 08:06:50;;;;;;;14.77;9.13;;;0.40;99.90;;;;;;5030860;28;20545;-53
2022/01/16 08:09:16;;;;;;;19.13;11.10;;;0.40;99.90;;;;;;5027295;28;20558;-52
2022/01/16 08:11:43;;;;;;;20.73;10.57;;;0.40;99.90;;;;;;5030602;28;21051;-52
2022/01/16 08:14:11;;;;;;;21.63;11.00;;;0.40;99.90;;;;;;5030663;28;21015;-52
2022/01/16 08:16:37;;;;;;;21.47;10.20;;;0.40;99.90;;;;;;5028799;28;20467;-53
2022/01/16 08:19:04;;;;;;;19.20;10.70;;;0.40;99.90;;;;;;5029240;28;20502;-52
2022/01/16 08:21:31;;;;;;;18.10;10.37;;;0.50;99.90;;;;;;5028794;28;20586;-53
2022/01/16 08:23:57;;;;;;;20.70;12.20;;;0.50;99.90;;;;;;5028589;28;20550;-53
2022/01/16 08:26:24;;;;;;;20.77;11.03;;;0.50;99.90;;;;;;5028264;28;20545;-52
2022/01/16 08:28:51;;;;;;;29.93;11.50;;;0.50;99.90;;;;;;5029404;28;20467;-52
2022/01/16 08:31:18;;;;;;;20.43;11.50;;;0.50;99.90;;;;;;5026356;28;20493;-52
2022/01/16 08:33:45;;;;;;;24.57;10.60;;;0.60;99.90;;;;;;5031124;28;20557;-52
2022/01/16 08:36:12;;;;;;;28.83;14.10;;;0.70;99.90;;;;;;5030641;28;20521;-52
2022/01/16 08:38:38;;;;;;;23.73;13.03;;;0.80;99.90;;;;;;5028049;28;20909;-53
2022/01/16 08:41:05;;;;;;;20.70;11.60;;;0.80;99.90;;;;;;5024866;28;20578;-52
2022/01/16 08:43:31;;;;;;;22.03;11.10;;;0.80;99.90;;;;;;5027013;28;21010;-53
2022/01/16 08:45:58;;;;;;;29.63;11.90;;;0.90;99.90;;;;;;5027687;28;20463;-53
2022/01/16 08:48:26;;;;;;;21.30;11.80;;;0.90;99.90;;;;;;5030473;28;20548;-52
2022/01/16 08:50:53;;;;;;;20.33;12.63;;;0.90;99.90;;;;;;5027879;28;21089;-52
2022/01/16 08:53:19;;;;;;;25.63;13.80;;;1.00;99.90;;;;;;5029551;28;20540;-52
2022/01/16 08:55:46;;;;;;;20.67;12.50;;;1.00;99.90;;;;;;5028081;28;20455;-52
2022/01/16 08:58:13;;;;;;;21.40;12.30;;;1.20;99.90;;;;;;5029001;28;20545;-54
2022/01/16 09:00:40;;;;;;;20.20;12.40;;;1.20;99.90;;;;;;5027332;28;20578;-51
2022/01/16 09:03:06;;;;;;;24.13;12.33;;;1.30;99.90;;;;;;5029763;28;20534;-52
2022/01/16 09:05:34;;;;;;;21.70;12.40;;;1.30;99.90;;;;;;5028057;28;20890;-52
2022/01/16 09:08:01;;;;;;;24.83;13.43;;;1.40;99.90;;;;;;5029379;28;21039;-52
2022/01/16 09:10:28;;;;;;;24.60;12.10;;;1.30;99.90;;;;;;5027731;28;20528;-53
2022/01/16 09:12:54;;;;;;;20.47;12.50;;;1.40;99.90;;;;;;5026652;28;21255;-52
2022/01/16 09:15:22;;;;;;;24.03;12.70;;;1.40;99.90;;;;;;5020208;28;20559;-52
2022/01/16 09:17:49;;;;;;;16.50;11.60;;;1.40;99.90;;;;;;5029774;28;20498;-52
2022/01/16 09:20:15;;;;;;;22.23;11.10;;;1.50;99.90;;;;;;5025709;28;20519;-51
2022/01/16 09:22:45;;;;;;;21.43;12.67;;;1.50;99.90;;;;;;5018616;28;20568;-52
2022/01/16 09:25:13;;;;;;;22.87;13.13;;;1.50;99.90;;;;;;5023710;28;20536;-52
2022/01/16 09:27:40;;;;;;;23.10;13.57;;;1.50;99.90;;;;;;5024478;28;20455;-52
2022/01/16 09:30:10;;;;;;;28.80;13.90;;;1.60;99.90;;;;;;5024655;28;20550;-52
2022/01/16 09:32:37;;;;;;;23.17;15.30;;;1.50;99.90;;;;;;5024382;28;20558;-52
2022/01/16 09:35:06;;;;;;;28.03;13.63;;;1.50;99.90;;;;;;5022799;28;20482;-53
2022/01/16 09:37:32;;;;;;;20.80;13.90;;;1.50;99.90;;;;;;5025305;28;20906;-53
2022/01/16 09:40:01;;;;;;;23.87;12.87;;;1.40;99.90;;;;;;5024414;28;20780;-52
2022/01/16 09:42:28;;;;;;;24.67;13.33;;;1.50;99.90;;;;;;5025127;28;20578;-54
2022/01/16 09:44:55;;;;;;;17.90;11.73;;;1.50;99.90;;;;;;5024833;28;20548;-52
2022/01/16 09:47:22;;;;;;;22.77;13.00;;;1.50;99.90;;;;;;5025039;28;20553;-52
2022/01/16 09:49:49;;;;;;;19.63;11.90;;;1.50;99.90;;;;;;5024476;28;20569;-52
2022/01/16 09:52:16;;;;;;;19.53;12.43;;;1.60;99.90;;;;;;5025908;28;20546;-52
2022/01/16 09:54:43;;;;;;;23.10;14.53;;;1.60;99.90;;;;;;5028774;28;20517;-52
2022/01/16 09:57:12;;;;;;;21.13;13.57;;;1.60;99.90;;;;;;5030652;28;20546;-53
2022/01/16 09:59:38;;;;;;;19.90;13.23;;;1.60;99.90;;;;;;5030542;28;20466;-52
2022/01/16 10:02:06;;;;;;;23.00;14.30;;;1.60;99.90;;;;;;5027632;28;20573;-52
2022/01/16 10:04:35;;;;;;;18.33;13.30;;;1.60;99.90;;;;;;5029346;28;20519;-53
2022/01/16 10:07:04;;;;;;;23.50;13.80;;;1.60;99.90;;;;;;5020734;28;20498;-53
2022/01/16 10:09:31;;;;;;;22.23;15.40;;;1.60;99.90;;;;;;5025124;28;20482;-54
2022/01/16 10:12:00;;;;;;;25.10;14.63;;;1.60;99.90;;;;;;5029927;28;20569;-53
2022/01/16 10:14:34;;;;;;;22.10;14.83;;;1.60;99.90;;;;;;5030360;28;20466;-52
2022/01/16 10:17:09;;;;;;;20.47;13.00;;;1.50;99.90;;;;;;5027455;28;20466;-52
2022/01/16 10:19:36;;;;;;;19.73;14.67;;;1.40;99.90;;;;;;5030600;28;20447;-52
2022/01/16 10:22:05;;;;;;;27.23;16.63;;;1.30;99.90;;;;;;5028975;28;20566;-53
2022/01/16 10:24:34;;;;;;;22.47;14.43;;;1.30;99.90;;;;;;5026496;28;20490;-52
2022/01/16 10:27:14;;;;;;;19.40;15.53;;;1.20;99.90;;;;;;5025123;28;20991;-52
2022/01/16 10:29:44;;;;;;;18.90;15.73;;;1.30;99.90;;;;;;5028845;28;20462;-53
2022/01/16 10:32:13;;;;;;;24.27;16.30;;;1.30;99.90;;;;;;5026077;28;20573;-53
2022/01/16 10:34:40;;;;;;;23.57;16.37;;;1.20;99.90;;;;;;5031224;28;21136;-52
2022/01/16 10:37:19;;;;;;;21.17;15.90;;;1.20;90.10;;;;;;5025061;28;20584;-52
2022/01/16 10:39:56;;;;;;;21.53;15.50;;;1.30;96.60;;;;;;5024201;28;20494;-53
2022/01/16 10:42:23;;;;;;;24.53;17.17;;;1.20;95.60;;;;;;5029341;28;20900;-53
2022/01/16 10:45:02;;;;;;;24.10;17.33;;;1.30;89.70;;;;;;5029082;28;20876;-52
2022/01/16 10:47:41;;;;;;;20.47;16.17;;;1.30;93.20;;;;;;5022085;28;20455;-53
2022/01/16 10:50:14;;;;;;;19.47;15.83;;;1.40;88.90;;;;;;5025513;28;21489;-52
2022/01/16 10:52:49;;;;;;;23.00;15.50;;;1.40;97.00;;;;;;5041323;23;20493;-52
2022/01/16 10:55:16;;;;;;;21.70;16.13;;;1.30;88.90;;;;;;5043028;28;20946;-52
2022/01/16 10:57:43;;;;;;;19.87;15.90;;;1.40;82.90;;;;;;5043046;28;20552;-52
2022/01/16 11:00:15;;;;;;;21.13;17.07;;;1.40;78.80;;;;;;5040911;28;20564;-52
2022/01/16 11:02:44;;;;;;;23.87;16.27;;;1.40;73.00;;;;;;5040294;28;20500;-51
2022/01/16 11:05:12;;;;;;;23.40;16.80;;;1.40;69.60;;;;;;5022580;28;20889;-52
2022/01/16 11:07:40;;;;;;;23.73;17.60;;;1.40;62.40;;;;;;5017695;28;21113;-53
2022/01/16 11:10:23;;;;;;;26.50;17.93;;;1.40;68.20;;;;;;5024643;28;20451;-52
2022/01/16 11:12:50;;;;;;;22.53;18.00;;;1.40;58.90;;;;;;5031385;28;20463;-53
2022/01/16 11:15:18;;;;;;;24.13;16.80;;;1.40;58.40;;;;;;5031126;28;20537;-53
2022/01/16 11:17:45;;;;;;;26.97;17.63;;;1.50;49.50;;;;;;5029356;28;20478;-51
2022/01/16 11:20:12;;;;;;;24.33;17.10;;;1.50;55.30;;;;;;5025997;28;20474;-53
2022/01/16 11:22:57;;;;;;;23.70;17.10;;;1.50;49.40;;;;;;5027913;28;20516;-53
2022/01/16 11:25:31;;;;;;;22.20;17.33;;;1.60;43.30;;;;;;5014600;28;20451;-52
2022/01/16 11:28:00;;;;;;;24.37;18.73;;;1.50;48.80;;;;;;5025177;28;20447;-52
2022/01/16 11:30:29;;;;;;;24.93;17.13;;;1.50;47.10;;;;;;5031069;28;20443;-52
2022/01/16 11:32:56;;;;;;;24.73;17.40;;;1.60;39.20;;;;;;5031136;28;20554;-52
2022/01/16 11:35:23;;;;;;;25.20;18.20;;;1.60;42.10;;;;;;5030421;28;20537;-53
2022/01/16 11:37:50;;;;;;;22.57;17.63;;;1.60;37.00;;;;;;5022156;28;20490;-53
2022/01/16 11:40:24;;;;;;;23.53;16.97;;;1.60;36.90;;;;;;5034003;28;21026;-52
2022/01/16 11:43:13;;;;;;;24.87;17.93;;;1.60;35.10;;;;;;5033405;28;20486;-53
2022/01/16 11:45:51;;;;;;;23.00;17.17;;;1.70;27.80;;;;;;5049754;28;21175;-52
2022/01/16 11:48:34;;;;;;;23.63;18.80;;;1.70;27.40;;;;;;5028361;28;20545;-53
2022/01/16 11:51:01;;;;;;;24.67;18.50;;;1.80;32.00;;;;;;5032304;28;20446;-53
2022/01/16 11:53:53;;;;;;;21.57;16.83;;;1.80;33.10;;;;;;5020427;28;20554;-52
2022/01/16 11:57:06;;;;;;;22.43;17.63;;;1.90;29.50;;;;;;5039555;28;20475;-52
2022/01/16 11:59:40;;;;;;;24.63;18.50;;;1.90;39.00;;;;;;5021572;28;20459;-52
2022/01/16 12:02:20;;;;;;;25.43;18.60;;;1.80;41.10;;;;;;5035222;28;20478;-52
2022/01/16 12:04:56;;;;;;;23.57;18.77;;;1.80;35.90;;;;;;5014390;28;20479;-52
2022/01/16 12:07:47;;;;;;;26.10;19.10;;;1.90;28.90;;;;;;5015327;28;20462;-52
2022/01/16 12:10:54;;;;;;;22.30;17.30;;;1.90;22.40;;;;;;5023447;28;20545;-52
2022/01/16 12:13:44;;;;;;;27.97;17.70;;;1.90;77.70;;;;;;5028590;28;21019;-52
2022/01/16 12:16:33;;;;;;;23.27;18.17;;;1.90;83.60;;;;;;5013868;28;20946;-52
2022/01/16 12:19:33;;;;;;;26.27;18.63;;;1.90;99.90;;;;;;5026184;28;20467;-54
2022/01/16 12:22:01;;;;;;;29.87;19.97;;;2.00;99.90;;;;;;5032759;28;20569;-52
2022/01/16 12:24:36;;;;;;;28.10;19.60;;;2.00;99.90;;;;;;5021524;28;20519;-52
2022/01/16 12:27:22;;;;;;;24.93;17.43;;;2.00;99.90;;;;;;5014124;28;20489;-52
2022/01/16 12:30:12;;;;;;;24.43;16.90;;;2.10;99.90;;;;;;5029855;28;21046;-51
2022/01/16 12:32:50;;;;;;;22.73;16.00;;;2.10;99.90;;;;;;5031594;28;20506;-52
2022/01/16 12:38:53;;;;;;;20.20;16.13;;;2.20;99.90;;;;;;5032409;28;20442;-53
2022/01/16 12:41:26;;;;;;;21.37;17.27;;;2.20;99.90;;;;;;5031702;28;20536;-52
2022/01/16 12:43:55;;;;;;;20.77;15.87;;;2.20;99.90;;;;;;5013783;28;20522;-52
2022/01/16 12:46:25;;;;;;;22.20;17.80;;;2.30;99.90;;;;;;5016917;28;20894;-52
2022/01/16 12:48:54;;;;;;;18.67;15.60;;;2.30;99.90;;;;;;5032187;28;20541;-51
2022/01/16 12:51:24;;;;;;;23.60;17.53;;;2.30;99.90;;;;;;5039455;28;20525;-52
2022/01/16 12:53:54;;;;;;;22.63;17.27;;;2.30;99.90;;;;;;5025498;28;20501;-53
2022/01/16 12:56:29;;;;;;;24.63;18.37;;;2.30;99.90;;;;;;5039110;28;20476;-51
2022/01/16 12:58:58;;;;;;;22.47;18.20;;;2.30;99.90;;;;;;5020680;28;21005;-53
2022/01/16 13:01:26;;;;;;;32.83;18.13;;;2.40;99.90;;;;;;5014521;28;20523;-53
2022/01/16 13:03:53;;;;;;;24.50;18.40;;;2.40;99.90;;;;;;5013601;28;20583;-51
2022/01/16 13:06:23;;;;;;;24.30;17.43;;;2.40;99.90;;;;;;5031023;28;20456;-52
2022/01/16 13:09:03;;;;;;;27.73;18.90;;;2.50;99.90;;;;;;5032903;28;20509;-52
2022/01/16 13:11:32;;;;;;;22.70;16.80;;;2.50;99.90;;;;;;5032859;28;21004;-52
2022/01/16 13:13:58;;;;;;;23.63;16.60;;;2.60;99.90;;;;;;5032508;28;20493;-52
2022/01/16 13:16:27;;;;;;;27.30;16.43;;;2.60;99.90;;;;;;5034375;28;20479;-51
2022/01/16 13:19:13;;;;;;;22.63;15.77;;;2.50;99.90;;;;;;5028372;28;20912;-52
2022/01/16 13:21:59;;;;;;;27.57;18.30;;;2.60;99.90;;;;;;5027799;28;20554;-53
2022/01/16 13:24:32;;;;;;;30.10;18.67;;;2.70;99.90;;;;;;5034756;28;20858;-53
2022/01/16 13:27:00;;;;;;;27.70;18.67;;;2.60;99.90;;;;;;5022960;28;20476;-53
2022/01/16 13:29:27;;;;;;;24.93;17.83;;;2.70;99.90;;;;;;5012823;28;20448;-53
2022/01/16 13:31:54;;;;;;;28.37;19.43;;;2.70;99.90;;;;;;5023056;28;20478;-53
2022/01/16 13:34:40;;;;;;;32.73;19.10;;;2.80;99.90;;;;;;5016297;28;20490;-52
2022/01/16 13:37:09;;;;;;;28.50;19.40;;;2.80;99.90;;;;;;5012716;28;20451;-54